createdAt,value
2023-04-11T00:00:37.785Z,11.00
2023-04-11T00:01:37.805Z,10.93
2023-04-11T00:02:37.999Z,10.87
2023-04-11T00:03:37.971Z,10.83
2023-04-11T00:04:37.803Z,10.85
2023-04-11T00:05:37.736Z,10.86
2023-04-11T00:06:37.721Z,10.87
2023-04-11T00:07:37.732Z,10.94
2023-04-11T00:08:37.726Z,10.76
2023-04-11T00:09:37.710Z,10.90
2023-04-11T00:10:37.700Z,10.80
2023-04-11T00:11:37.700Z,10.87
2023-04-11T00:12:37.689Z,10.90
2023-04-11T00:13:37.732Z,10.94
2023-04-11T00:14:37.745Z,10.93
2023-04-11T00:15:37.699Z,10.90
2023-04-11T00:16:37.723Z,10.94
2023-04-11T00:17:37.828Z,10.87
2023-04-11T00:18:37.650Z,10.91
2023-04-11T00:19:37.649Z,10.91
2023-04-11T00:20:37.628Z,10.82
2023-04-11T00:21:37.625Z,10.91
2023-04-11T00:22:37.619Z,10.91
2023-04-11T00:23:37.613Z,10.86
2023-04-11T00:24:37.606Z,10.87
2023-04-11T00:25:37.597Z,10.91
2023-04-11T00:26:37.632Z,10.93
2023-04-11T00:27:37.585Z,10.91
2023-04-11T00:28:37.584Z,10.87
2023-04-11T00:29:37.572Z,10.91
2023-04-11T00:30:37.567Z,10.91
2023-04-11T00:31:37.601Z,10.90
2023-04-11T00:32:37.604Z,10.90
2023-04-11T00:33:39.254Z,10.91
2023-04-11T00:34:37.539Z,10.91
2023-04-11T00:35:37.545Z,10.93
2023-04-11T00:36:37.626Z,10.86
2023-04-11T00:37:37.517Z,10.90
2023-04-11T00:38:37.509Z,10.90
2023-04-11T00:39:37.502Z,10.90
2023-04-11T00:40:37.492Z,10.94
2023-04-11T00:41:37.495Z,10.90
2023-04-11T00:42:37.476Z,10.78
2023-04-11T00:43:37.486Z,10.68
2023-04-11T00:44:37.464Z,10.75
2023-04-11T00:45:37.476Z,10.67
2023-04-11T00:46:37.457Z,10.76
2023-04-11T00:47:37.488Z,10.79
2023-04-11T00:48:37.453Z,10.79
2023-04-11T00:49:37.446Z,10.78
2023-04-11T00:50:37.430Z,10.76
2023-04-11T00:51:37.423Z,10.70
2023-04-11T00:52:37.416Z,10.86
2023-04-11T00:53:37.412Z,10.83
2023-04-11T00:54:37.403Z,10.80
2023-04-11T00:55:37.393Z,10.76
2023-04-11T00:56:37.390Z,10.79
2023-04-11T00:57:37.384Z,10.86
2023-04-11T00:58:37.375Z,10.75
2023-04-11T00:59:37.372Z,10.79
2023-04-11T01:00:37.360Z,10.78
2023-04-11T01:01:37.458Z,10.76
2023-04-11T01:02:37.448Z,10.73
2023-04-11T01:03:37.541Z,10.73
2023-04-11T01:04:37.343Z,10.72
2023-04-11T01:05:37.356Z,10.68
2023-04-11T01:06:37.323Z,10.80
2023-04-11T01:07:37.324Z,10.73
2023-04-11T01:08:37.308Z,10.72
2023-04-11T01:09:37.312Z,10.72
2023-04-11T01:10:37.297Z,10.62
2023-04-11T01:11:37.292Z,10.62
2023-04-11T01:12:37.291Z,10.68
2023-04-11T01:13:37.281Z,10.58
2023-04-11T01:14:37.274Z,10.67
2023-04-11T01:15:37.271Z,10.76
2023-04-11T01:16:37.293Z,10.67
2023-04-11T01:17:37.287Z,10.65
2023-04-11T01:18:37.241Z,10.61
2023-04-11T01:19:37.242Z,10.61
2023-04-11T01:20:37.238Z,10.52
2023-04-11T01:21:37.227Z,10.57
2023-04-11T01:22:37.233Z,10.58
2023-04-11T01:23:37.211Z,10.54
2023-04-11T01:24:37.210Z,10.58
2023-04-11T01:25:37.198Z,10.39
2023-04-11T01:26:37.197Z,10.42
2023-04-11T01:27:37.185Z,10.49
2023-04-11T01:28:37.178Z,10.39
2023-04-11T01:29:37.175Z,10.35
2023-04-11T01:30:37.172Z,10.46
2023-04-11T01:31:37.159Z,10.39
2023-04-11T01:32:37.189Z,10.42
2023-04-11T01:33:37.142Z,10.41
2023-04-11T01:34:37.147Z,10.52
2023-04-11T01:35:37.165Z,10.43
2023-04-11T01:36:37.128Z,10.38
2023-04-11T01:37:37.132Z,10.49
2023-04-11T01:38:37.110Z,10.58
2023-04-11T01:39:37.117Z,10.52
2023-04-11T01:40:37.096Z,10.52
2023-04-11T01:41:37.086Z,10.45
2023-04-11T01:42:37.086Z,10.41
2023-04-11T01:43:37.075Z,10.36
2023-04-11T01:44:37.069Z,10.42
2023-04-11T01:45:37.060Z,10.39
2023-04-11T01:46:37.060Z,10.39
2023-04-11T01:47:37.082Z,10.42
2023-04-11T01:48:37.117Z,10.28
2023-04-11T01:49:37.028Z,10.21
2023-04-11T01:50:37.030Z,10.28
2023-04-11T01:51:37.020Z,10.30
2023-04-11T01:52:37.011Z,10.38
2023-04-11T01:53:37.006Z,10.41
2023-04-11T01:54:37.000Z,10.52
2023-04-11T01:55:36.994Z,10.54
2023-04-11T01:56:36.986Z,10.54
2023-04-11T01:57:36.974Z,10.65
2023-04-11T01:58:36.973Z,10.55
2023-04-11T01:59:36.975Z,10.58
2023-04-11T02:00:36.969Z,10.62
2023-04-11T02:01:37.033Z,10.54
2023-04-11T02:02:37.048Z,10.57
2023-04-11T02:03:37.214Z,10.67
2023-04-11T02:04:36.943Z,10.67
2023-04-11T02:05:36.920Z,10.65
2023-04-11T02:06:36.913Z,10.68
2023-04-11T02:07:36.904Z,10.72
2023-04-11T02:08:36.897Z,10.72
2023-04-11T02:09:36.889Z,10.60
2023-04-11T02:10:36.885Z,10.64
2023-04-11T02:11:36.882Z,10.61
2023-04-11T02:12:36.880Z,10.65
2023-04-11T02:13:36.869Z,10.58
2023-04-11T02:14:36.855Z,10.68
2023-04-11T02:15:36.914Z,10.62
2023-04-11T02:16:36.840Z,10.55
2023-04-11T02:17:36.991Z,10.61
2023-04-11T02:18:36.833Z,10.64
2023-04-11T02:19:36.837Z,10.60
2023-04-11T02:20:36.815Z,10.60
2023-04-11T02:21:36.810Z,10.60
2023-04-11T02:22:36.800Z,10.45
2023-04-11T02:23:36.799Z,10.60
2023-04-11T02:24:36.787Z,10.61
2023-04-11T02:25:36.781Z,10.68
2023-04-11T02:26:36.773Z,10.68
2023-04-11T02:27:36.772Z,10.61
2023-04-11T02:28:36.791Z,10.62
2023-04-11T02:29:36.753Z,10.54
2023-04-11T02:30:36.767Z,10.48
2023-04-11T02:31:36.881Z,10.42
2023-04-11T02:32:36.762Z,10.38
2023-04-11T02:33:36.727Z,10.42
2023-04-11T02:34:36.717Z,10.39
2023-04-11T02:35:36.758Z,10.39
2023-04-11T02:36:36.711Z,10.38
2023-04-11T02:37:36.705Z,10.31
2023-04-11T02:38:36.690Z,10.38
2023-04-11T02:39:36.683Z,10.39
2023-04-11T02:40:36.689Z,10.35
2023-04-11T02:41:36.670Z,10.48
2023-04-11T02:42:36.662Z,10.41
2023-04-11T02:43:36.653Z,10.43
2023-04-11T02:44:36.660Z,10.55
2023-04-11T02:45:36.641Z,10.46
2023-04-11T02:46:36.727Z,10.62
2023-04-11T02:47:36.657Z,10.55
2023-04-11T02:48:36.622Z,10.60
2023-04-11T02:49:36.614Z,10.61
2023-04-11T02:50:36.618Z,10.61
2023-04-11T02:51:36.601Z,10.64
2023-04-11T02:52:36.592Z,10.68
2023-04-11T02:53:36.589Z,10.64
2023-04-11T02:54:36.583Z,10.62
2023-04-11T02:55:36.569Z,10.64
2023-04-11T02:56:36.561Z,10.61
2023-04-11T02:57:36.559Z,10.68
2023-04-11T02:58:36.544Z,10.67
2023-04-11T02:59:36.541Z,10.70
2023-04-11T03:00:36.543Z,10.67
2023-04-11T03:01:36.627Z,10.61
2023-04-11T03:02:36.661Z,10.60
2023-04-11T03:03:36.560Z,10.61
2023-04-11T03:04:36.580Z,10.61
2023-04-11T03:05:36.500Z,10.61
2023-04-11T03:06:36.496Z,10.55
2023-04-11T03:07:36.484Z,10.62
2023-04-11T03:08:36.481Z,10.62
2023-04-11T03:09:36.477Z,10.62
2023-04-11T03:10:36.467Z,10.60
2023-04-11T03:11:36.455Z,10.65
2023-04-11T03:12:36.446Z,10.68
2023-04-11T03:13:36.444Z,10.62
2023-04-11T03:14:36.437Z,10.75
2023-04-11T03:15:36.531Z,10.58
2023-04-11T03:16:36.426Z,10.64
2023-04-11T03:17:36.445Z,10.72
2023-04-11T03:18:36.404Z,10.68
2023-04-11T03:19:36.405Z,10.72
2023-04-11T03:20:36.395Z,10.73
2023-04-11T03:21:36.386Z,10.64
2023-04-11T03:22:36.381Z,10.72
2023-04-11T03:23:36.370Z,10.67
2023-04-11T03:24:36.368Z,10.72
2023-04-11T03:25:36.359Z,10.68
2023-04-11T03:26:36.355Z,10.62
2023-04-11T03:27:36.347Z,10.73
2023-04-11T03:28:36.336Z,10.62
2023-04-11T03:29:36.335Z,10.72
2023-04-11T03:30:36.325Z,10.67
2023-04-11T03:31:36.337Z,10.68
2023-04-11T03:32:36.341Z,10.67
2023-04-11T03:33:36.308Z,10.75
2023-04-11T03:34:36.297Z,10.64
2023-04-11T03:35:36.361Z,10.62
2023-04-11T03:36:36.277Z,10.75
2023-04-11T03:37:36.277Z,10.70
2023-04-11T03:38:36.264Z,10.70
2023-04-11T03:39:36.267Z,10.62
2023-04-11T03:40:36.256Z,10.70
2023-04-11T03:41:36.252Z,10.67
2023-04-11T03:42:36.245Z,10.75
2023-04-11T03:43:36.252Z,10.68
2023-04-11T03:44:36.226Z,10.72
2023-04-11T03:45:36.234Z,10.65
2023-04-11T03:46:36.234Z,10.60
2023-04-11T03:47:36.215Z,10.68
2023-04-11T03:48:36.224Z,10.57
2023-04-11T03:49:36.193Z,10.61
2023-04-11T03:50:36.182Z,10.67
2023-04-11T03:51:36.171Z,10.68
2023-04-11T03:52:36.175Z,10.67
2023-04-11T03:53:36.160Z,10.65
2023-04-11T03:54:36.152Z,10.57
2023-04-11T03:55:36.150Z,10.60
2023-04-11T03:56:36.137Z,10.52
2023-04-11T03:57:36.133Z,10.49
2023-04-11T03:58:36.170Z,10.55
2023-04-11T03:59:36.109Z,10.58
2023-04-11T04:00:36.108Z,10.58
2023-04-11T04:01:36.160Z,10.57
2023-04-11T04:02:36.199Z,10.54
2023-04-11T04:03:36.318Z,10.58
2023-04-11T04:04:36.127Z,10.57
2023-04-11T04:05:36.074Z,10.52
2023-04-11T04:06:36.070Z,10.55
2023-04-11T04:07:36.051Z,10.52
2023-04-11T04:08:36.053Z,10.62
2023-04-11T04:09:36.043Z,10.61
2023-04-11T04:10:36.035Z,10.61
2023-04-11T04:11:36.023Z,10.61
2023-04-11T04:12:36.020Z,10.57
2023-04-11T04:13:36.015Z,10.60
2023-04-11T04:14:35.999Z,10.58
2023-04-11T04:15:35.995Z,10.46
2023-04-11T04:16:36.062Z,10.36
2023-04-11T04:17:36.000Z,10.34
2023-04-11T04:18:35.973Z,10.21
2023-04-11T04:19:35.981Z,10.23
2023-04-11T04:20:35.964Z,10.31
2023-04-11T04:21:35.953Z,10.38
2023-04-11T04:22:35.946Z,10.38
2023-04-11T04:23:35.937Z,10.31
2023-04-11T04:24:35.929Z,10.27
2023-04-11T04:25:35.927Z,10.45
2023-04-11T04:26:35.921Z,10.42
2023-04-11T04:27:35.910Z,10.42
2023-04-11T04:28:35.912Z,10.39
2023-04-11T04:29:35.895Z,10.54
2023-04-11T04:30:35.888Z,10.52
2023-04-11T04:31:35.941Z,10.48
2023-04-11T04:32:35.899Z,10.48
2023-04-11T04:33:35.889Z,10.48
2023-04-11T04:34:35.865Z,10.57
2023-04-11T04:35:35.895Z,10.46
2023-04-11T04:36:35.850Z,10.57
2023-04-11T04:37:35.838Z,10.35
2023-04-11T04:38:35.837Z,10.49
2023-04-11T04:39:35.837Z,10.45
2023-04-11T04:40:35.813Z,10.52
2023-04-11T04:41:35.814Z,10.46
2023-04-11T04:42:35.800Z,10.54
2023-04-11T04:43:35.793Z,10.57
2023-04-11T04:44:35.795Z,10.54
2023-04-11T04:45:35.795Z,10.52
2023-04-11T04:46:35.773Z,10.52
2023-04-11T04:47:35.817Z,10.55
2023-04-11T04:48:35.755Z,10.65
2023-04-11T04:49:35.755Z,10.45
2023-04-11T04:50:35.752Z,10.49
2023-04-11T04:51:35.735Z,10.48
2023-04-11T04:52:35.740Z,10.54
2023-04-11T04:53:35.724Z,10.62
2023-04-11T04:54:35.717Z,10.46
2023-04-11T04:55:35.710Z,10.61
2023-04-11T04:56:35.706Z,10.61
2023-04-11T04:57:35.705Z,10.64
2023-04-11T04:58:35.681Z,10.65
2023-04-11T04:59:35.683Z,10.62
2023-04-11T05:00:35.680Z,10.61
2023-04-11T05:01:35.737Z,10.64
2023-04-11T05:02:35.751Z,10.68
2023-04-11T05:03:35.753Z,10.61
2023-04-11T05:04:35.647Z,10.58
2023-04-11T05:05:35.646Z,10.61
2023-04-11T05:06:35.627Z,10.57
2023-04-11T05:07:35.630Z,10.58
2023-04-11T05:08:35.618Z,10.60
2023-04-11T05:09:35.614Z,10.60
2023-04-11T05:10:35.597Z,10.68
2023-04-11T05:11:35.595Z,10.73
2023-04-11T05:12:35.618Z,10.72
2023-04-11T05:13:35.586Z,10.64
2023-04-11T05:14:35.573Z,10.70
2023-04-11T05:15:35.565Z,10.60
2023-04-11T05:16:35.567Z,10.68
2023-04-11T05:17:35.565Z,10.61
2023-04-11T05:18:35.549Z,10.58
2023-04-11T05:19:35.536Z,10.61
2023-04-11T05:20:35.530Z,10.64
2023-04-11T05:21:35.519Z,10.54
2023-04-11T05:22:35.515Z,10.60
2023-04-11T05:23:35.513Z,10.57
2023-04-11T05:24:35.507Z,10.57
2023-04-11T05:25:35.491Z,10.65
2023-04-11T05:26:35.495Z,10.62
2023-04-11T05:27:35.480Z,10.68
2023-04-11T05:28:35.473Z,10.68
2023-04-11T05:29:35.474Z,10.67
2023-04-11T05:30:35.503Z,10.65
2023-04-11T05:31:35.458Z,10.72
2023-04-11T05:32:35.476Z,10.79
2023-04-11T05:33:35.443Z,10.70
2023-04-11T05:34:35.429Z,10.78
2023-04-11T05:35:35.490Z,10.75
2023-04-11T05:36:35.417Z,10.78
2023-04-11T05:37:35.420Z,10.73
2023-04-11T05:38:35.409Z,10.70
2023-04-11T05:39:35.394Z,10.79
2023-04-11T05:40:35.395Z,10.79
2023-04-11T05:41:35.394Z,10.78
2023-04-11T05:42:35.377Z,10.70
2023-04-11T05:43:35.369Z,10.78
2023-04-11T05:44:35.359Z,10.75
2023-04-11T05:45:35.354Z,10.67
2023-04-11T05:46:35.376Z,10.76
2023-04-11T05:47:35.422Z,10.79
2023-04-11T05:48:35.329Z,10.75
2023-04-11T05:49:35.321Z,10.73
2023-04-11T05:50:35.312Z,10.70
2023-04-11T05:51:35.318Z,10.68
2023-04-11T05:52:35.308Z,10.65
2023-04-11T05:53:35.302Z,10.75
2023-04-11T05:54:35.310Z,10.68
2023-04-11T05:55:35.281Z,10.67
2023-04-11T05:56:35.284Z,10.70
2023-04-11T05:57:35.270Z,10.64
2023-04-11T05:58:35.263Z,10.72
2023-04-11T05:59:35.250Z,10.67
2023-04-11T06:00:35.253Z,10.76
2023-04-11T06:01:35.236Z,10.64
2023-04-11T06:02:35.294Z,10.72
2023-04-11T06:03:35.439Z,10.65
2023-04-11T06:04:35.366Z,10.70
2023-04-11T06:05:35.210Z,10.61
2023-04-11T06:06:35.202Z,10.68
2023-04-11T06:07:35.195Z,10.65
2023-04-11T06:08:35.185Z,10.67
2023-04-11T06:09:35.186Z,10.57
2023-04-11T06:10:35.168Z,10.72
2023-04-11T06:11:35.166Z,10.67
2023-04-11T06:12:35.164Z,10.70
2023-04-11T06:13:35.196Z,10.78
2023-04-11T06:14:35.147Z,10.80
2023-04-11T06:15:35.168Z,10.75
2023-04-11T06:16:35.126Z,10.76
2023-04-11T06:17:35.172Z,10.78
2023-04-11T06:18:35.114Z,10.83
2023-04-11T06:19:35.117Z,10.87
2023-04-11T06:20:35.115Z,10.86
2023-04-11T06:21:35.105Z,10.91
2023-04-11T06:22:35.083Z,10.94
2023-04-11T06:23:35.086Z,10.78
2023-04-11T06:24:35.068Z,10.86
2023-04-11T06:25:35.069Z,10.79
2023-04-11T06:26:35.069Z,10.72
2023-04-11T06:27:35.049Z,10.78
2023-04-11T06:28:35.052Z,10.79
2023-04-11T06:29:35.041Z,10.83
2023-04-11T06:30:35.034Z,10.82
2023-04-11T06:31:35.050Z,10.90
2023-04-11T06:32:35.046Z,10.83
2023-04-11T06:33:35.010Z,10.93
2023-04-11T06:34:35.019Z,11.00
2023-04-11T06:35:35.033Z,10.94
2023-04-11T06:36:34.992Z,10.93
2023-04-11T06:37:35.004Z,10.98
2023-04-11T06:38:34.983Z,11.01
2023-04-11T06:39:34.975Z,11.00
2023-04-11T06:40:34.965Z,11.03
2023-04-11T06:41:34.982Z,11.00
2023-04-11T06:42:34.956Z,11.12
2023-04-11T06:43:34.967Z,11.08
2023-04-11T06:44:35.022Z,11.13
2023-04-11T06:45:34.956Z,11.13
2023-04-11T06:46:34.976Z,11.05
2023-04-11T06:47:34.951Z,11.00
2023-04-11T06:48:34.933Z,10.87
2023-04-11T06:49:34.904Z,10.94
2023-04-11T06:50:34.893Z,11.01
2023-04-11T06:51:34.916Z,11.12
2023-04-11T06:52:34.892Z,11.05
2023-04-11T06:53:34.873Z,11.01
2023-04-11T06:54:34.875Z,11.05
2023-04-11T06:55:34.859Z,11.11
2023-04-11T06:56:34.852Z,11.03
2023-04-11T06:57:34.850Z,11.11
2023-04-11T06:58:34.841Z,11.19
2023-04-11T06:59:34.863Z,11.13
2023-04-11T07:00:34.846Z,11.27
2023-04-11T07:01:34.864Z,11.18
2023-04-11T07:02:34.944Z,11.20
2023-04-11T07:03:34.909Z,11.20
2023-04-11T07:04:34.877Z,11.15
2023-04-11T07:05:34.793Z,11.23
2023-04-11T07:06:34.780Z,11.19
2023-04-11T07:07:34.773Z,11.16
2023-04-11T07:08:34.773Z,11.25
2023-04-11T07:09:34.765Z,11.25
2023-04-11T07:10:34.757Z,11.18
2023-04-11T07:11:34.751Z,11.11
2023-04-11T07:12:34.740Z,11.18
2023-04-11T07:13:34.738Z,11.18
2023-04-11T07:14:34.732Z,11.22
2023-04-11T07:15:34.730Z,11.18
2023-04-11T07:16:34.773Z,11.16
2023-04-11T07:17:34.754Z,11.27
2023-04-11T07:18:34.703Z,11.19
2023-04-11T07:19:34.703Z,11.25
2023-04-11T07:20:34.688Z,11.20
2023-04-11T07:21:34.706Z,11.16
2023-04-11T07:22:34.678Z,11.18
2023-04-11T07:23:34.663Z,11.27
2023-04-11T07:24:34.662Z,11.27
2023-04-11T07:25:34.654Z,11.27
2023-04-11T07:26:34.647Z,11.20
2023-04-11T07:27:34.642Z,11.25
2023-04-11T07:28:34.635Z,11.28
2023-04-11T07:29:34.634Z,11.36
2023-04-11T07:30:34.622Z,11.54
2023-04-11T07:31:34.623Z,11.52
2023-04-11T07:32:34.628Z,11.59
2023-04-11T07:33:34.608Z,11.52
2023-04-11T07:34:34.606Z,11.48
2023-04-11T07:35:34.669Z,11.45
2023-04-11T07:36:34.585Z,11.43
2023-04-11T07:37:34.575Z,11.40
2023-04-11T07:38:34.556Z,11.36
2023-04-11T07:39:34.557Z,11.43
2023-04-11T07:40:34.553Z,11.31
2023-04-11T07:41:34.546Z,11.40
2023-04-11T07:42:34.534Z,11.52
2023-04-11T07:43:34.530Z,11.56
2023-04-11T07:44:34.526Z,11.58
2023-04-11T07:45:34.557Z,11.66
2023-04-11T07:46:34.514Z,11.70
2023-04-11T07:47:34.566Z,11.71
2023-04-11T07:48:34.499Z,11.67
2023-04-11T07:49:34.488Z,11.64
2023-04-11T07:50:34.496Z,11.62
2023-04-11T07:51:34.472Z,11.64
2023-04-11T07:52:34.468Z,11.59
2023-04-11T07:53:34.476Z,11.67
2023-04-11T07:54:34.457Z,11.71
2023-04-11T07:55:34.450Z,11.79
2023-04-11T07:56:34.442Z,11.82
2023-04-11T07:57:34.432Z,11.95
2023-04-11T07:58:34.431Z,12.00
2023-04-11T07:59:34.422Z,11.96
2023-04-11T08:00:34.414Z,12.05
2023-04-11T08:01:34.405Z,12.11
2023-04-11T08:02:34.483Z,12.03
2023-04-11T08:03:34.538Z,12.03
2023-04-11T08:04:34.780Z,12.05
2023-04-11T08:05:34.426Z,11.99
2023-04-11T08:06:34.366Z,11.95
2023-04-11T08:07:34.374Z,11.96
2023-04-11T08:08:34.372Z,11.97
2023-04-11T08:09:34.363Z,11.85
2023-04-11T08:10:34.364Z,11.84
2023-04-11T08:11:34.342Z,11.96
2023-04-11T08:12:34.337Z,11.93
2023-04-11T08:13:34.326Z,12.11
2023-04-11T08:14:34.333Z,12.17
2023-04-11T08:15:34.313Z,12.11
2023-04-11T08:16:34.419Z,12.13
2023-04-11T08:17:34.418Z,12.10
2023-04-11T08:18:34.295Z,12.07
2023-04-11T08:19:34.293Z,12.04
2023-04-11T08:20:34.286Z,12.13
2023-04-11T08:21:34.277Z,12.18
2023-04-11T08:22:34.292Z,12.18
2023-04-11T08:23:34.279Z,12.18
2023-04-11T08:24:34.259Z,12.11
2023-04-11T08:25:34.258Z,12.17
2023-04-11T08:26:34.244Z,12.21
2023-04-11T08:27:34.241Z,12.38
2023-04-11T08:28:34.235Z,12.43
2023-04-11T08:29:34.225Z,12.50
2023-04-11T08:30:34.250Z,12.59
2023-04-11T08:31:34.237Z,12.63
2023-04-11T08:32:34.232Z,12.63
2023-04-11T08:33:34.200Z,12.61
2023-04-11T08:34:34.194Z,12.68
2023-04-11T08:35:34.204Z,12.66
2023-04-11T08:36:34.191Z,12.66
2023-04-11T08:37:34.178Z,12.76
2023-04-11T08:38:34.169Z,12.65
2023-04-11T08:39:34.169Z,12.66
2023-04-11T08:40:34.159Z,12.65
2023-04-11T08:41:34.142Z,12.55
2023-04-11T08:42:34.152Z,12.54
2023-04-11T08:43:34.139Z,12.51
2023-04-11T08:44:34.134Z,12.41
2023-04-11T08:45:34.117Z,12.28
2023-04-11T08:46:34.291Z,12.26
2023-04-11T08:47:34.137Z,12.25
2023-04-11T08:48:34.104Z,12.25
2023-04-11T08:49:34.093Z,12.22
2023-04-11T08:50:34.091Z,12.26
2023-04-11T08:51:34.084Z,12.25
2023-04-11T08:52:34.101Z,12.46
2023-04-11T08:53:34.068Z,12.47
2023-04-11T08:54:34.064Z,12.48
2023-04-11T08:55:34.066Z,12.44
2023-04-11T08:56:34.075Z,12.59
2023-04-11T08:57:34.078Z,12.68
2023-04-11T08:58:34.037Z,12.73
2023-04-11T08:59:34.047Z,12.87
2023-04-11T09:00:34.245Z,12.91
2023-04-11T09:01:34.157Z,12.91
2023-04-11T09:02:34.165Z,12.91
2023-04-11T09:03:34.051Z,12.91
2023-04-11T09:04:34.060Z,12.95
2023-04-11T09:05:34.012Z,12.88
2023-04-11T09:06:33.991Z,12.81
2023-04-11T09:07:33.986Z,12.88
2023-04-11T09:08:33.989Z,12.86
2023-04-11T09:09:33.967Z,12.91
2023-04-11T09:10:33.977Z,12.83
2023-04-11T09:11:33.960Z,12.80
2023-04-11T09:12:33.962Z,12.90
2023-04-11T09:13:33.958Z,12.88
2023-04-11T09:14:34.167Z,12.91
2023-04-11T09:15:33.956Z,12.96
2023-04-11T09:16:33.935Z,13.01
2023-04-11T09:17:33.938Z,13.05
2023-04-11T09:18:33.925Z,13.24
2023-04-11T09:19:33.933Z,13.30
2023-04-11T09:20:33.915Z,13.45
2023-04-11T09:21:33.904Z,13.49
2023-04-11T09:22:33.895Z,13.57
2023-04-11T09:23:33.890Z,13.55
2023-04-11T09:24:35.594Z,13.65
2023-04-11T09:25:33.903Z,13.60
2023-04-11T09:26:33.879Z,13.42
2023-04-11T09:27:33.874Z,13.38
2023-04-11T09:28:33.861Z,13.29
2023-04-11T09:29:33.859Z,13.27
2023-04-11T09:30:33.849Z,13.16
2023-04-11T09:31:33.892Z,13.14
2023-04-11T09:32:34.019Z,13.17
2023-04-11T09:33:33.836Z,13.13
2023-04-11T09:34:33.831Z,13.16
2023-04-11T09:35:33.825Z,13.19
2023-04-11T09:36:33.824Z,13.02
2023-04-11T09:37:33.811Z,13.01
2023-04-11T09:38:33.837Z,12.99
2023-04-11T09:39:33.809Z,13.01
2023-04-11T09:40:33.802Z,13.04
2023-04-11T09:41:33.794Z,13.23
2023-04-11T09:42:33.781Z,13.38
2023-04-11T09:43:33.789Z,13.60
2023-04-11T09:44:33.777Z,13.73
2023-04-11T09:45:40.832Z,14.18
2023-04-11T09:46:33.817Z,14.33
2023-04-11T09:47:33.780Z,14.55
2023-04-11T09:48:45.907Z,14.67
2023-04-11T09:49:33.745Z,14.61
2023-04-11T09:50:33.744Z,14.63
2023-04-11T09:51:37.050Z,14.74
2023-04-11T09:52:33.735Z,14.58
2023-04-11T09:53:33.732Z,14.82
2023-04-11T09:54:33.722Z,14.97
2023-04-11T09:55:33.722Z,15.14
2023-04-11T09:56:33.716Z,15.40
2023-04-11T09:57:33.704Z,15.48
2023-04-11T09:58:33.701Z,15.63
2023-04-11T09:59:33.705Z,15.68
2023-04-11T10:00:33.690Z,15.40
2023-04-11T10:01:33.761Z,15.35
2023-04-11T10:02:33.895Z,15.11
2023-04-11T10:03:33.777Z,14.82
2023-04-11T10:04:33.724Z,14.86
2023-04-11T10:05:33.674Z,14.97
2023-04-11T10:06:33.709Z,15.41
2023-04-11T10:07:33.662Z,15.32
2023-04-11T10:08:33.669Z,15.35
2023-04-11T10:09:33.660Z,15.62
2023-04-11T10:10:33.667Z,15.91
2023-04-11T10:11:33.651Z,16.14
2023-04-11T10:12:33.657Z,16.32
2023-04-11T10:13:33.645Z,16.16
2023-04-11T10:14:33.642Z,15.84
2023-04-11T10:15:33.642Z,15.87
2023-04-11T10:16:33.646Z,15.95
2023-04-11T10:17:33.658Z,15.76
2023-04-11T10:18:33.643Z,15.69
2023-04-11T10:19:33.623Z,15.70
2023-04-11T10:20:33.629Z,15.59
2023-04-11T10:21:33.628Z,15.47
2023-04-11T10:22:33.620Z,15.70
2023-04-11T10:23:33.616Z,15.80
2023-04-11T10:24:33.620Z,15.69
2023-04-11T10:25:33.613Z,15.90
2023-04-11T10:26:33.605Z,16.22
2023-04-11T10:27:33.605Z,16.44
2023-04-11T10:28:33.608Z,16.26
2023-04-11T10:29:33.631Z,16.37
2023-04-11T10:30:33.602Z,16.05
2023-04-11T10:31:33.644Z,15.90
2023-04-11T10:32:33.630Z,15.68
2023-04-11T10:33:33.589Z,15.76
2023-04-11T10:34:33.590Z,15.54
2023-04-11T10:35:33.616Z,15.80
2023-04-11T10:36:33.583Z,15.87
2023-04-11T10:37:33.607Z,15.93
2023-04-11T10:38:33.578Z,16.10
2023-04-11T10:39:33.568Z,16.51
2023-04-11T10:40:33.575Z,16.72
2023-04-11T10:41:33.571Z,17.01
2023-04-11T10:42:33.576Z,16.91
2023-04-11T10:43:33.570Z,16.97
2023-04-11T10:44:33.568Z,16.83
2023-04-11T10:45:33.564Z,16.73
2023-04-11T10:46:33.627Z,16.80
2023-04-11T10:47:33.568Z,16.95
2023-04-11T10:48:33.557Z,17.24
2023-04-11T10:49:33.565Z,17.39
2023-04-11T10:50:33.567Z,17.35
2023-04-11T10:51:33.569Z,17.25
2023-04-11T10:52:33.558Z,17.09
2023-04-11T10:53:33.549Z,16.62
2023-04-11T10:54:33.554Z,16.49
2023-04-11T10:55:33.546Z,16.36
2023-04-11T10:56:33.554Z,16.37
2023-04-11T10:57:33.546Z,16.28
2023-04-11T10:58:33.549Z,16.32
2023-04-11T10:59:33.542Z,16.28
2023-04-11T11:00:35.119Z,16.09
2023-04-11T11:01:42.732Z,15.83
2023-04-11T11:02:33.656Z,15.87
2023-04-11T11:03:33.755Z,16.00
2023-04-11T11:04:33.720Z,16.32
2023-04-11T11:05:33.531Z,16.67
2023-04-11T11:06:34.804Z,16.72
2023-04-11T11:07:33.542Z,16.51
2023-04-11T11:08:33.525Z,16.28
2023-04-11T11:09:33.526Z,16.17
2023-04-11T11:10:33.519Z,16.05
2023-04-11T11:11:33.516Z,16.08
2023-04-11T11:12:33.527Z,15.80
2023-04-11T11:13:33.516Z,15.59
2023-04-11T11:14:33.513Z,15.62
2023-04-11T11:15:33.511Z,15.48
2023-04-11T11:16:33.510Z,15.40
2023-04-11T11:17:33.543Z,15.38
2023-04-11T11:18:33.533Z,15.51
2023-04-11T11:19:33.505Z,15.45
2023-04-11T11:20:33.496Z,15.69
2023-04-11T11:21:33.493Z,16.16
2023-04-11T11:22:33.497Z,16.42
2023-04-11T11:23:34.902Z,16.55
2023-04-11T11:24:33.489Z,16.54
2023-04-11T11:25:33.486Z,16.59
2023-04-11T11:26:33.478Z,16.64
2023-04-11T11:27:33.477Z,16.98
2023-04-11T11:28:33.496Z,17.07
2023-04-11T11:29:33.483Z,16.95
2023-04-11T11:30:33.477Z,16.90
2023-04-11T11:31:33.490Z,16.88
2023-04-11T11:32:33.498Z,16.74
2023-04-11T11:33:33.463Z,16.88
2023-04-11T11:34:33.479Z,16.95
2023-04-11T11:35:33.480Z,17.07
2023-04-11T11:36:33.480Z,17.02
2023-04-11T11:37:33.465Z,17.09
2023-04-11T11:38:33.462Z,17.06
2023-04-11T11:39:33.460Z,16.76
2023-04-11T11:40:33.460Z,16.73
2023-04-11T11:41:33.464Z,16.55
2023-04-11T11:42:33.454Z,16.40
2023-04-11T11:43:33.452Z,16.26
2023-04-11T11:44:33.451Z,15.73
2023-04-11T11:45:33.461Z,15.54
2023-04-11T11:46:33.492Z,15.51
2023-04-11T11:47:33.453Z,15.56
2023-04-11T11:48:33.451Z,15.59
2023-04-11T11:49:33.456Z,15.72
2023-04-11T11:50:33.457Z,15.87
2023-04-11T11:51:33.448Z,15.80
2023-04-11T11:52:33.555Z,16.09
2023-04-11T11:53:33.447Z,16.16
2023-04-11T11:54:33.431Z,16.17
2023-04-11T11:55:33.439Z,16.37
2023-04-11T11:56:33.434Z,16.37
2023-04-11T11:57:33.427Z,16.46
2023-04-11T11:58:33.439Z,16.28
2023-04-11T11:59:33.425Z,16.24
2023-04-11T12:00:33.429Z,15.93
2023-04-11T12:01:33.420Z,15.78
2023-04-11T12:02:33.581Z,15.66
2023-04-11T12:03:33.516Z,15.43
2023-04-11T12:04:33.612Z,15.47
2023-04-11T12:05:33.441Z,15.47
2023-04-11T12:06:33.394Z,15.56
2023-04-11T12:07:33.433Z,15.72
2023-04-11T12:08:33.394Z,15.60
2023-04-11T12:09:33.377Z,15.80
2023-04-11T12:10:33.398Z,16.02
2023-04-11T12:11:33.377Z,16.18
2023-04-11T12:12:33.379Z,16.42
2023-04-11T12:13:33.380Z,16.43
2023-04-11T12:14:33.372Z,16.43
2023-04-11T12:15:33.394Z,16.57
2023-04-11T12:16:33.379Z,16.65
2023-04-11T12:17:35.314Z,16.67
2023-04-11T12:18:33.353Z,16.62
2023-04-11T12:19:33.349Z,16.51
2023-04-11T12:20:33.345Z,16.40
2023-04-11T12:21:33.339Z,16.37
2023-04-11T12:22:33.336Z,16.34
2023-04-11T12:23:33.329Z,16.28
2023-04-11T12:24:33.328Z,16.24
2023-04-11T12:25:33.331Z,16.21
2023-04-11T12:26:33.337Z,16.37
2023-04-11T12:27:33.328Z,16.44
2023-04-11T12:28:33.314Z,16.52
2023-04-11T12:29:33.339Z,16.39
2023-04-11T12:30:33.306Z,16.59
2023-04-11T12:31:33.331Z,16.65
2023-04-11T12:32:33.327Z,16.69
2023-04-11T12:33:33.290Z,16.94
2023-04-11T12:34:33.293Z,17.01
2023-04-11T12:35:33.289Z,17.01
2023-04-11T12:37:33.277Z,16.92
2023-04-11T12:38:33.277Z,16.98
2023-04-11T12:39:33.273Z,16.82
2023-04-11T12:40:33.262Z,16.84
2023-04-11T12:41:33.265Z,16.73
2023-04-11T12:43:33.251Z,16.62
2023-04-11T12:44:33.246Z,16.74
2023-04-11T12:45:33.241Z,16.72
2023-04-11T12:46:33.252Z,16.64
2023-04-11T12:47:33.260Z,16.33
2023-04-11T12:48:33.250Z,16.44
2023-04-11T12:49:33.232Z,16.36
2023-04-11T12:50:33.220Z,16.37
2023-04-11T12:51:33.224Z,16.29
2023-04-11T12:52:33.213Z,16.32
2023-04-11T12:53:33.213Z,16.33
2023-04-11T12:54:33.203Z,16.29